Aviation Digital Data Service (ADDS)

Output produced by METARs form (1336 UTC 26 May 2018)
found at http://www.aviationweather.gov/adds/metars/
 
EGAA 261320Z 06013KT CAVOK 20/12 Q1025
TAF EGAA 261056Z 2612/2712 06012KT 9999 FEW045 
     PROB40 
     TEMPO 2612/2617 08015G25KT 
     TEMPO 2702/2710 07015G25KT 
     PROB30 
     TEMPO 2710/2712 8000 SHRA
       
EGPL 261320Z AUTO 11006KT 9999 NCD 20/10 Q1029
EGUB 261250Z AUTO 02012KT 7000 // SCT027/// 22/18 Q1018
EGKB 261320Z 08015KT 8000 FEW025 22/17 Q1019
EGBB 261320Z 05012KT 9999 FEW021 20/16 Q1021
TAF EGBB 261053Z 2612/2712 04009KT 5000 HZ BKN009 
     BECMG 2612/2615 9999 NSW FEW012 
     TEMPO 2612/2614 SHRA 
     TEMPO 2621/2711 6000 TSRA 
     PROB30 
     TEMPO 2622/2712 04015G25KT 2000 +SHRA TSGR BKN010 BKN040CB
       
EGNH 261250Z 08018KT CAVOK 21/11 Q1023
EGDM 261250Z AUTO 05014KT 9999 FEW018/// 23/16 Q1017
EGHH 261320Z 06013KT 9999 FEW035 25/17 Q1015
EGGD 261320Z AUTO 04012KT 5000 BR SCT008 BKN012 OVC017 17/17 Q1018
TAF EGGD 261105Z 2612/2712 04010KT 4000 BR BKN004 
     BECMG 2612/2615 9999 NSW SCT015 
     TEMPO 2618/2702 4000 +SHRA TSRA BKN009 BKN045CB 
     PROB40 
     TEMPO 2620/2702 VRB15G27KT 1200 +TSGR BKN004 
     TEMPO 2703/2709 BKN006 
     PROB40 
     TEMPO 2703/2709 3000 BR SCT001 BKN002 
     TEMPO 2707/2712 5000 TSRA BKN014 BKN045CB 
     PROB40 
     TEMPO 2707/2712 VRB15G27KT 2000 +SHRA TSGR BKN009
       
EGVN 261250Z 07015KT 9000 HZ FEW018 21/16 Q1019 NOSIG
TAF EGVN 261034Z 2612/2712 04009KT 9999 FEW015 
     PROB30 
     TEMPO 2612/2617 5000 SHRA SCT018CB 
     PROB40 
     TEMPO 2621/2709 07015G30KT 2500 TSGR +SHRA SCT012 BKN050CB 
     TEMPO 2709/2712 7000 SHRA SCT020CB 
     PROB30 
     TEMPO 2710/2712 2000 TSGR +SHRA SCT008
       
EGAA 261320Z 06013KT CAVOK 20/12 Q1025
TAF EGAA 261056Z 2612/2712 06012KT 9999 FEW045 
     PROB40 
     TEMPO 2612/2617 08015G25KT 
     TEMPO 2702/2710 07015G25KT 
     PROB30 
     TEMPO 2710/2712 8000 SHRA
       
EGAC 261320Z AUTO 04011KT 360V100 9999 NCD 21/11 Q1025
EGAE 261320Z 04018KT CAVOK 19/13 Q1025
EGBB 261320Z 05012KT 9999 FEW021 20/16 Q1021
TAF EGBB 261053Z 2612/2712 04009KT 5000 HZ BKN009 
     BECMG 2612/2615 9999 NSW FEW012 
     TEMPO 2612/2614 SHRA 
     TEMPO 2621/2711 6000 TSRA 
     PROB30 
     TEMPO 2622/2712 04015G25KT 2000 +SHRA TSGR BKN010 BKN040CB
       
EGBJ 261320Z 04012KT 6000 BKN012 20/17 Q1019
EGCC 261320Z AUTO 07011KT 040V100 9999 NCD 21/12 Q1022
TAF EGCC 261055Z 2612/2718 06008KT 9999 SCT015 
     PROB30 
     TEMPO 2612/2613 7000 SHRA 
     PROB30 
     TEMPO 2703/2718 4000 +SHRA +TSRA
       
EGCK 261320Z 04015KT 9000 FEW040 17/13 Q1021
EGCN 261320Z 08012KT 030V110 CAVOK 21/11 Q1024
TAF EGCN 261055Z 2612/2712 06007KT 9999 FEW045 
     PROB30 2623/2706 4000 BR BKN004
       
EGDM 261250Z AUTO 05014KT 9999 FEW018/// 23/16 Q1017
EGDR 261250Z AUTO 06014KT 9999 // BKN050/// 21/13 Q1016
EGDX 261250Z 06011KT 7000 HZ FEW008 SCT030 BKN046 18/14 Q1018 WHT
EGDY 261250Z 03014KT 6000 HZ BKN020 20/16 Q1017 WHT
EGEC 261250Z 07019KT 030V110 CAVOK 21/11 Q1026
EGEO 261320Z 11009KT 070V130 CAVOK 24/09 Q1027
EGFF 261320Z 07019KT 6000 SCT016 19/15 Q1018
TAF AMD EGFF 261204Z 2612/2712 04012KT 4000 HZ FEW015 
     BECMG 2612/2615 9999 NSW 
     TEMPO 2612/2615 SHRA 
     TEMPO 2619/2706 6000 TSRA 
     PROB40 
     TEMPO 2619/2702 06020G30KT 2000 +SHRA TSGR BKN010 BKN040CB 
     PROB30 
     TEMPO 2706/2712 4000 +TSRA BKN014 BKN040CB
       
EGGD 261320Z AUTO 04012KT 5000 BR SCT008 BKN012 OVC017 17/17 Q1018
TAF EGGD 261105Z 2612/2712 04010KT 4000 BR BKN004 
     BECMG 2612/2615 9999 NSW SCT015 
     TEMPO 2618/2702 4000 +SHRA TSRA BKN009 BKN045CB 
     PROB40 
     TEMPO 2620/2702 VRB15G27KT 1200 +TSGR BKN004 
     TEMPO 2703/2709 BKN006 
     PROB40 
     TEMPO 2703/2709 3000 BR SCT001 BKN002 
     TEMPO 2707/2712 5000 TSRA BKN014 BKN045CB 
     PROB40 
     TEMPO 2707/2712 VRB15G27KT 2000 +SHRA TSGR BKN009
       
EGGP 261320Z 07019KT CAVOK 21/12 Q1022
TAF EGGP 261055Z 2612/2712 07008KT 9999 SCT015 
     PROB30 
     TEMPO 2612/2614 7000 SHRA 
     PROB40 
     TEMPO 2703/2712 4000 +SHRA +TSRA
       
EGGW 261320Z AUTO 04013KT 9999 FEW017 SCT022 BKN034 22/18 Q1019
TAF EGGW 261105Z 2612/2712 04010KT 7000 FEW020 
     BECMG 2612/2614 9999 
     PROB40 
     TEMPO 2623/2712 3000 +TSRA BKN010 BKN040CB
       
EGHC 261320Z 03018KT 6000 SCT010 19/15 Q1016
EGHE 261320Z 02014KT 6000 NSC 16/14 Q1017
EGHH 261320Z 06013KT 9999 FEW035 25/17 Q1015
EGHI 261320Z 04010KT 010V080 9999 FEW034 22/16 Q1016
EGHQ 261320Z 02011KT 9999 SCT035 17/13 Q1016
EGJA 261320Z 04019KT 3000 BR SCT002 SCT004 14/// Q1013
EGJB 261320Z 04013KT 3000 HZ FEW004 15/14 Q1013
EGJJ 261320Z 07016KT 040V100 7000 NSC 21/16 Q1013
EGKA 261320Z 06016KT CAVOK 26/18 Q1016
EGKB 261320Z 08015KT 8000 FEW025 22/17 Q1019
EGKK 261320Z 06017KT 9999 FEW035 25/17 Q1017
TAF EGKK 261052Z 2612/2718 06010KT 9999 SCT025 
     PROB30 2612/2615 8000 
     PROB40 
     TEMPO 2620/2707 07015G25KT 4000 +TSRAGS BKN014 BKN040CB 
     BECMG 2706/2709 12008KT 
     TEMPO 2714/2718 4000 TSRA BKN014 BKN040CB 
     PROB30 
     TEMPO 2714/2718 2000 +TSRAGR
       
EGLC 261320Z AUTO 09020KT 9999 FEW031 25/16 Q1018
EGLF 261320Z 07018KT 9999 SCT025 25/15 Q1018
EGLL 261320Z AUTO 08014KT 9999 FEW044 25/16 Q1018 NOSIG
TAF EGLL 261106Z 2612/2718 06010KT 8000 SCT025 
     BECMG 2612/2614 9999 
     PROB40 
     TEMPO 2622/2706 08015G25KT 3000 +TSRAGS BKN014 BKN045CB 
     TEMPO 2711/2718 7000 SHRA 
     PROB40 
     TEMPO 2711/2718 3000 +TSRAGR BKN014 BKN025CB
       
EGMC 261320Z 07011KT 9000 NSC 22/16 Q1019
EGMD 261320Z 06022KT 8000 NSC 22/17 Q1017
EGNH 261250Z 08018KT CAVOK 21/11 Q1023
EGNJ 261320Z 06015KT CAVOK 18/11 Q1024
EGNM 261320Z 06012KT 360V110 CAVOK 18/10 Q1025
TAF EGNM 261105Z 2612/2712 05010KT 9999 SCT030 
     TEMPO 2622/2708 7000 
     PROB40 
     TEMPO 2700/2707 BKN006 
     PROB30 
     TEMPO 2709/2712 6000 TSRA
       
EGNR 261320Z 05008KT 9999 FEW030 SCT049 22/13 Q1022
EGNS 261320Z 06016KT 9999 FEW040 21/07 Q1023 NOSIG
EGNT 261320Z 04008KT CAVOK 17/10 Q1027
TAF EGNT 261055Z 2612/2712 02008KT 9999 FEW045 
     PROB40 2618/2703 6000 BKN006
       
EGNV 261320Z 04012KT 350V070 CAVOK 17/11 Q1026
EGNX 261320Z 06012KT CAVOK 19/15 Q1022
TAF EGNX 261053Z 2612/2712 04009KT 9999 FEW012 
     PROB30 
     TEMPO 2612/2614 7000 SHRA 
     TEMPO 2622/2712 6000 TSRA 
     PROB30 
     TEMPO 2623/2712 04015G25KT 2000 +SHRA TSGR BKN010 BKN040CB
       
EGOM 261250Z AUTO 08017KT 9999 NCD 19/10 Q1026
EGOP 261250Z AUTO 04011KT 6000 // BKN070/// 18/15 Q1019
EGOS 261250Z AUTO 06007KT 9999 FEW046/// BKN080/// 19/13 Q1021 RERA
EGOV 261250Z AUTO 06016KT 9999 -RA SCT070/// 18/12 Q1022
EGPA 261320Z 07010KT 5000 BR VCFG BKN002 OVC003 10/09 Q1034
EGPB 261320Z 06015KT 9999 FEW011 12/09 Q1034
EGPC 261320Z AUTO 08008KT 5000 OVC001/// 10/09 Q1033
EGPD 261320Z AUTO 03007KT 350V090 9999 NCD 19/10 Q1031
TAF EGPD 261100Z 2612/2712 03009KT 9999 FEW030 
     PROB30 2618/2706 6000 BKN006
       
EGPE 261320Z 03011KT 8000 FEW004 BKN008 12/11 Q1032
EGPF 261320Z AUTO 08011KT 9999 NCD 18/10 Q1028
TAF EGPF 261100Z 2612/2712 07012KT 9999 FEW020 
     TEMPO 2612/2618 08016G26KT 
     PROB40 2623/2709 3000 BR BKN005
       
EGPH 261320Z 08018KT CAVOK 15/10 Q1029
TAF EGPH 261100Z 2612/2712 07012KT 9999 FEW020 
     TEMPO 2612/2618 07017G27KT 
     TEMPO 2616/2709 3000 BR BKN003 
     PROB30 2618/2624 0500 FG BKN001
       
EGPI 261320Z AUTO 07019KT 040V110 9999 NCD 23/11 Q1026
EGPK 261320Z 03016KT 9999 FEW035 20/10 Q1027
TAF EGPK 261100Z 2612/2712 06012KT 9999 FEW030 
     TEMPO 2612/2618 06015G25KT 9000 -SHRA 
     PROB30 
     TEMPO 2700/2706 BKN009
       
EGPL 261320Z AUTO 11006KT 9999 NCD 20/10 Q1029
EGPM 261320Z AUTO 09014KT 9999 NCD 12/08 Q1034
EGPN 261320Z 10011KT 060V120 CAVOK 18/10 Q1030
EGPO 261320Z 04007KT CAVOK 13/10 Q1030
EGPU 261320Z 02008KT CAVOK 17/12 Q1028
EGQK 261250Z AUTO 02014KT 9999 FEW013/// 12/09 Q1032
EGQL 261250Z 08015KT CAVOK 15/08 Q1030 BLU
EGQM 261250Z AUTO 01009KT 9999 NCD 15/11 Q1028
EGQS 261250Z 04009KT 9999 OVC007 11/08 Q1032 GRN
TAF EGQS 261042Z 2612/2706 05006KT 7000 HZ FEW003 BKN006 
     PROB30 
     TEMPO 2612/2617 9999 NSW FEW005 
     PROB40 
     TEMPO 2617/2706 1500 BR BKN002
       
EGSC 261320Z 05009KT 030V100 7000 FEW022 23/17 Q1020
EGSH 261320Z 06010KT 030V100 CAVOK 20/13 Q1022 NOSIG
EGSS 261320Z AUTO 06014KT 9999 FEW021 24/18 Q1020
TAF AMD EGSS 261105Z 2611/2712 04010KT 8000 FEW025 
     BECMG 2611/2614 9999 
     PROB40 
     TEMPO 2623/2712 05015G25KT 4000 +TSRA BKN014 BKN045CB
       
EGTE 261320Z 02012KT 350V050 8000 SCT018 20/15 Q1016
EGTK 261320Z 05013KT 7000 SCT021 22/17 Q1019
EGUB 261250Z AUTO 02012KT 7000 // SCT027/// 22/18 Q1018
EGUL 261256Z AUTO 05012KT 9999 FEW190 22/16 A3012 RMK AO2 SLP203 T02200158 $
EGUN 261256Z AUTO 07010KT 9999 FEW160 SCT180 BKN200 22/22 A3013 RMK AO2 SLP206 T02220222
TAF EGUN 261159Z 2612/2718 05010G15KT 9999 BKN020 QNH3010INS 
     BECMG 2616/2617 06010G20KT 9999 BKN030 QNH3002INS 
     TEMPO 2713/2716 6000 -TSRA BKN030CB 
     BECMG 2715/2716 10010G15KT 8000 -SHRA SCT030 QNH3000INS TX22/2712Z TN10/2621Z
       
EGUW 261250Z AUTO 06012KT 9999 NCD 21/15 Q1020
EGVA 261327Z AUTO 07014G21KT 2000 -RA FEW020 22/17 A3007 RMK AO2 VIS 2000V6000 RAB22 SLP184 $
EGVN 261250Z 07015KT 9000 HZ FEW018 21/16 Q1019 NOSIG
TAF EGVN 261034Z 2612/2712 04009KT 9999 FEW015 
     PROB30 
     TEMPO 2612/2617 5000 SHRA SCT018CB 
     PROB40 
     TEMPO 2621/2709 07015G30KT 2500 TSGR +SHRA SCT012 BKN050CB 
     TEMPO 2709/2712 7000 SHRA SCT020CB 
     PROB30 
     TEMPO 2710/2712 2000 TSGR +SHRA SCT008
       
EGVO 261250Z AUTO 09016KT 9999 SCT032/// 25/15 Q1017
EGVP 261250Z AUTO 05013KT 9000 // SCT023/// 24/16 Q1017
EGWC 261250Z 03007KT 9999 SCT018 BKN025 17/// Q1022 WHT
EGWU 261250Z 07018KT 9999 SCT034 25/16 Q1018 NOSIG
TAF EGWU 261048Z 2612/2706 05012KT 9999 FEW030 
     PROB30 
     TEMPO 2623/2706 08015G25KT 3000 +TSRA SCT014 BKN045CB
       
EGXC 261250Z 07015KT CAVOK 18/11 Q1022 BLU
TAF EGXC 261015Z 2612/2706 07014KT 9999 SCT040 
     TEMPO 2612/2617 07015G25KT 
     BECMG 2700/2703 6000 HZ
       
EGXE 261250Z AUTO 01013KT 9999 FEW090/// BKN170/// 18/11 Q1026
EGXP 261250Z 07015KT CAVOK 18/11 Q1023 BLU
EGXS 261250Z AUTO 05007KT 9999 // FEW140/// 15/11 Q1024
EGXT 261250Z AUTO 04015KT 9000 FEW100/// 19/15 Q1021
EGXU 261250Z AUTO 07010KT 9999 // BKN070/// 18/09 Q1025
EGXV 261250Z AUTO 06011KT 9999 FEW080/// 17/10 Q1025
EGXW 261250Z 07014KT CAVOK 19/12 Q1022 BLU
TAF EGXW 261040Z 2612/2706 05015KT 9999 SCT045 
     PROB30 
     TEMPO 2612/2616 06015G25KT 7000 SHRA 
     BECMG 2623/2702 5000 BR
       
EGXZ 261250Z AUTO 33008KT 9999 BKN070/// 18/13 Q1025
EGYD 261250Z AUTO 07010KT 9999 // NCD 17/13 Q1022
EGYM 261250Z AUTO 07014KT 9999 OVC160/// 22/14 Q1021
EGYP 261250Z 30030KT 9999 FEW018 SCT220 09/04 Q0980 BLU NOSIG
TAF EGYP 261002Z 2612/2706 31025G35KT 9999 FEW040 
     PROB40 
     TEMPO 2612/2621 31035G45KT 
     BECMG 2700/2703 27020G30KT SCT010 
     PROB30 
     TEMPO 2703/2706 25030G45KT 7000 -DZ
       
EGCK 261320Z 04015KT 9000 FEW040 17/13 Q1021
EGSC 261320Z 05009KT 030V100 7000 FEW022 23/17 Q1020
EGEC 261250Z 07019KT 030V110 CAVOK 21/11 Q1026
EGFF 261320Z 07019KT 6000 SCT016 19/15 Q1018
TAF AMD EGFF 261204Z 2612/2712 04012KT 4000 HZ FEW015 
     BECMG 2612/2615 9999 NSW 
     TEMPO 2612/2615 SHRA 
     TEMPO 2619/2706 6000 TSRA 
     PROB40 
     TEMPO 2619/2702 06020G30KT 2000 +SHRA TSGR BKN010 BKN040CB 
     PROB30 
     TEMPO 2706/2712 4000 +TSRA BKN014 BKN040CB
       
EGLC 261320Z AUTO 09020KT 9999 FEW031 25/16 Q1018
EGAC 261320Z AUTO 04011KT 360V100 9999 NCD 21/11 Q1025
EGXC 261250Z 07015KT CAVOK 18/11 Q1022 BLU
TAF EGXC 261015Z 2612/2706 07014KT 9999 SCT040 
     TEMPO 2612/2617 07015G25KT 
     BECMG 2700/2703 6000 HZ
       
EGWC 261250Z 03007KT 9999 SCT018 BKN025 17/// Q1022 WHT
EGYD 261250Z AUTO 07010KT 9999 // NCD 17/13 Q1022
EGDR 261250Z AUTO 06014KT 9999 // BKN050/// 21/13 Q1016
EGPN 261320Z 10011KT 060V120 CAVOK 18/10 Q1030
EGPD 261320Z AUTO 03007KT 350V090 9999 NCD 19/10 Q1031
TAF EGPD 261100Z 2612/2712 03009KT 9999 FEW030 
     PROB30 2618/2706 6000 BKN006
       
EGNX 261320Z 06012KT CAVOK 19/15 Q1022
TAF EGNX 261053Z 2612/2712 04009KT 9999 FEW012 
     PROB30 
     TEMPO 2612/2614 7000 SHRA 
     TEMPO 2622/2712 6000 TSRA 
     PROB30 
     TEMPO 2623/2712 04015G25KT 2000 +SHRA TSGR BKN010 BKN040CB
       
EGPH 261320Z 08018KT CAVOK 15/10 Q1029
TAF EGPH 261100Z 2612/2712 07012KT 9999 FEW020 
     TEMPO 2612/2618 07017G27KT 
     TEMPO 2616/2709 3000 BR BKN003 
     PROB30 2618/2624 0500 FG BKN001
       
EGTE 261320Z 02012KT 350V050 8000 SCT018 20/15 Q1016
EGVA 261327Z AUTO 07014G21KT 2000 -RA FEW020 22/17 A3007 RMK AO2 VIS 2000V6000 RAB22 SLP184 $
EGLF 261320Z 07018KT 9999 SCT025 25/15 Q1018
EGKK 261320Z 06017KT 9999 FEW035 25/17 Q1017
TAF EGKK 261052Z 2612/2718 06010KT 9999 SCT025 
     PROB30 2612/2615 8000 
     PROB40 
     TEMPO 2620/2707 07015G25KT 4000 +TSRAGS BKN014 BKN040CB 
     BECMG 2706/2709 12008KT 
     TEMPO 2714/2718 4000 TSRA BKN014 BKN040CB 
     PROB30 
     TEMPO 2714/2718 2000 +TSRAGR
       
EGPF 261320Z AUTO 08011KT 9999 NCD 18/10 Q1028
TAF EGPF 261100Z 2612/2712 07012KT 9999 FEW020 
     TEMPO 2612/2618 08016G26KT 
     PROB40 2623/2709 3000 BR BKN005
       
EGBJ 261320Z 04012KT 6000 BKN012 20/17 Q1019
EGNR 261320Z 05008KT 9999 FEW030 SCT049 22/13 Q1022
EGLL 261320Z AUTO 08014KT 9999 FEW044 25/16 Q1018 NOSIG
TAF EGLL 261106Z 2612/2718 06010KT 8000 SCT025 
     BECMG 2612/2614 9999 
     PROB40 
     TEMPO 2622/2706 08015G25KT 3000 +TSRAGS BKN014 BKN045CB 
     TEMPO 2711/2718 7000 SHRA 
     PROB40 
     TEMPO 2711/2718 3000 +TSRAGR BKN014 BKN025CB
       
EGNJ 261320Z 06015KT CAVOK 18/11 Q1024
EGPE 261320Z 03011KT 8000 FEW004 BKN008 12/11 Q1032
EGPI 261320Z AUTO 07019KT 040V110 9999 NCD 23/11 Q1026
EGTK 261320Z 05013KT 7000 SCT021 22/17 Q1019
EGQK 261250Z AUTO 02014KT 9999 FEW013/// 12/09 Q1032
EGPA 261320Z 07010KT 5000 BR VCFG BKN002 OVC003 10/09 Q1034
EGUL 261256Z AUTO 05012KT 9999 FEW190 22/16 A3012 RMK AO2 SLP203 T02200158 $
EGNM 261320Z 06012KT 360V110 CAVOK 18/10 Q1025
TAF EGNM 261105Z 2612/2712 05010KT 9999 SCT030 
     TEMPO 2622/2708 7000 
     PROB40 
     TEMPO 2700/2707 BKN006 
     PROB30 
     TEMPO 2709/2712 6000 TSRA
       
EGXE 261250Z AUTO 01013KT 9999 FEW090/// BKN170/// 18/11 Q1026
EGQL 261250Z 08015KT CAVOK 15/08 Q1030 BLU
EGXU 261250Z AUTO 07010KT 9999 // BKN070/// 18/09 Q1025
EGGP 261320Z 07019KT CAVOK 21/12 Q1022
TAF EGGP 261055Z 2612/2712 07008KT 9999 SCT015 
     PROB30 
     TEMPO 2612/2614 7000 SHRA 
     PROB40 
     TEMPO 2703/2712 4000 +SHRA +TSRA
       
EGAE 261320Z 04018KT CAVOK 19/13 Q1025
EGQS 261250Z 04009KT 9999 OVC007 11/08 Q1032 GRN
TAF EGQS 261042Z 2612/2706 05006KT 7000 HZ FEW003 BKN006 
     PROB30 
     TEMPO 2612/2617 9999 NSW FEW005 
     PROB40 
     TEMPO 2617/2706 1500 BR BKN002
       
EGGW 261320Z AUTO 04013KT 9999 FEW017 SCT022 BKN034 22/18 Q1019
TAF EGGW 261105Z 2612/2712 04010KT 7000 FEW020 
     BECMG 2612/2614 9999 
     PROB40 
     TEMPO 2623/2712 3000 +TSRA BKN010 BKN040CB
       
EGMD 261320Z 06022KT 8000 NSC 22/17 Q1017
EGCC 261320Z AUTO 07011KT 040V100 9999 NCD 21/12 Q1022
TAF EGCC 261055Z 2612/2718 06008KT 9999 SCT015 
     PROB30 
     TEMPO 2612/2613 7000 SHRA 
     PROB30 
     TEMPO 2703/2718 4000 +SHRA +TSRA
       
EGYM 261250Z AUTO 07014KT 9999 OVC160/// 22/14 Q1021
EGUN 261256Z AUTO 07010KT 9999 FEW160 SCT180 BKN200 22/22 A3013 RMK AO2 SLP206 T02220222
TAF EGUN 261159Z 2612/2718 05010G15KT 9999 BKN020 QNH3010INS 
     BECMG 2616/2617 06010G20KT 9999 BKN030 QNH3002INS 
     TEMPO 2713/2716 6000 -TSRA BKN030CB 
     BECMG 2715/2716 10010G15KT 8000 -SHRA SCT030 QNH3000INS TX22/2712Z TN10/2621Z
       
EGNT 261320Z 04008KT CAVOK 17/10 Q1027
TAF EGNT 261055Z 2612/2712 02008KT 9999 FEW045 
     PROB40 2618/2703 6000 BKN006
       
EGWU 261250Z 07018KT 9999 SCT034 25/16 Q1018 NOSIG
TAF EGWU 261048Z 2612/2706 05012KT 9999 FEW030 
     PROB30 
     TEMPO 2623/2706 08015G25KT 3000 +TSRA SCT014 BKN045CB
       
EGSH 261320Z 06010KT 030V100 CAVOK 20/13 Q1022 NOSIG
EGEO 261320Z 11009KT 070V130 CAVOK 24/09 Q1027
EGVO 261250Z AUTO 09016KT 9999 SCT032/// 25/15 Q1017
EGPK 261320Z 03016KT 9999 FEW035 20/10 Q1027
TAF EGPK 261100Z 2612/2712 06012KT 9999 FEW030 
     TEMPO 2612/2618 06015G25KT 9000 -SHRA 
     PROB30 
     TEMPO 2700/2706 BKN009
       
EGXP 261250Z 07015KT CAVOK 18/11 Q1023 BLU
EGPM 261320Z AUTO 09014KT 9999 NCD 12/08 Q1034
EGOS 261250Z AUTO 06007KT 9999 FEW046/// BKN080/// 19/13 Q1021 RERA
EGKA 261320Z 06016KT CAVOK 26/18 Q1016
EGHI 261320Z 04010KT 010V080 9999 FEW034 22/16 Q1016
EGMC 261320Z 07011KT 9000 NSC 22/16 Q1019
EGDX 261250Z 06011KT 7000 HZ FEW008 SCT030 BKN046 18/14 Q1018 WHT
EGSS 261320Z AUTO 06014KT 9999 FEW021 24/18 Q1020
TAF AMD EGSS 261105Z 2611/2712 04010KT 8000 FEW025 
     BECMG 2611/2614 9999 
     PROB40 
     TEMPO 2623/2712 05015G25KT 4000 +TSRA BKN014 BKN045CB
       
EGPO 261320Z 04007KT CAVOK 13/10 Q1030
EGPB 261320Z 06015KT 9999 FEW011 12/09 Q1034
EGNV 261320Z 04012KT 350V070 CAVOK 17/11 Q1026
EGPU 261320Z 02008KT CAVOK 17/12 Q1028
EGXZ 261250Z AUTO 33008KT 9999 BKN070/// 18/13 Q1025
EGOV 261250Z AUTO 06016KT 9999 -RA SCT070/// 18/12 Q1022
EGXW 261250Z 07014KT CAVOK 19/12 Q1022 BLU
TAF EGXW 261040Z 2612/2706 05015KT 9999 SCT045 
     PROB30 
     TEMPO 2612/2616 06015G25KT 7000 SHRA 
     BECMG 2623/2702 5000 BR
       
EGUW 261250Z AUTO 06012KT 9999 NCD 21/15 Q1020
EGPC 261320Z AUTO 08008KT 5000 OVC001/// 10/09 Q1033
EGXT 261250Z AUTO 04015KT 9000 FEW100/// 19/15 Q1021
EGDY 261250Z 03014KT 6000 HZ BKN020 20/16 Q1017 WHT